Time;durP1;ratioP1;P1;durP2;ratioP2;P2;SDS_P1;SDS_P2;PMS_P1;PMS_P2;Temp;Humidity;BMP_temperature;BMP_pressure;BME280_temperature;BME280_humidity;BME280_pressure;Samples;Min_cycle;Max_cycle;Signal;HPM_P1;HPM_P2
2021/09/06 00:00:12;;;;;;;4.32;1.25;;;10.80;99.90;;;;;;4392940;32;20075;-65
2021/09/06 00:02:40;;;;;;;4.70;1.58;;;10.70;99.90;;;;;;4380367;32;20194;-65
2021/09/06 00:05:09;;;;;;;1.98;1.17;;;10.70;99.90;;;;;;4379525;32;20095;-65
2021/09/06 00:07:36;;;;;;;2.80;1.80;;;10.70;99.90;;;;;;4380635;32;20077;-64
2021/09/06 00:10:20;;;;;;;2.58;1.77;;;10.70;99.90;;;;;;4394704;32;20451;-65
2021/09/06 00:12:47;;;;;;;1.98;1.50;;;10.70;99.90;;;;;;4380147;32;20526;-65
2021/09/06 00:15:13;;;;;;;1.70;1.37;;;10.70;99.90;;;;;;4392437;32;20087;-65
2021/09/06 00:17:39;;;;;;;2.65;1.70;;;10.60;99.90;;;;;;4392002;32;20070;-65
2021/09/06 00:20:06;;;;;;;1.80;1.45;;;10.40;99.90;;;;;;4393513;32;20148;-65
2021/09/06 00:22:32;;;;;;;1.45;1.35;;;10.30;99.90;;;;;;4379496;32;20073;-66
2021/09/06 00:24:59;;;;;;;2.37;1.60;;;10.30;99.90;;;;;;4391968;32;20072;-64
2021/09/06 00:27:25;;;;;;;1.95;1.35;;;10.30;99.90;;;;;;4379166;32;20069;-64
2021/09/06 00:29:51;;;;;;;5.57;1.48;;;10.30;99.90;;;;;;4391813;32;20084;-65
2021/09/06 00:32:17;;;;;;;3.45;1.60;;;10.30;99.90;;;;;;4379505;32;20078;-64
2021/09/06 00:34:43;;;;;;;2.40;1.42;;;10.20;99.90;;;;;;4393249;32;20066;-65
2021/09/06 00:37:09;;;;;;;6.28;2.17;;;10.20;99.90;;;;;;4392211;32;20085;-65
2021/09/06 00:39:36;;;;;;;3.45;2.03;;;10.20;99.90;;;;;;4379616;32;20081;-65
2021/09/06 00:42:02;;;;;;;3.42;2.10;;;10.30;99.90;;;;;;4378315;32;20468;-67
2021/09/06 00:44:28;;;;;;;3.78;1.98;;;10.20;99.90;;;;;;4379077;32;20458;-65
2021/09/06 00:46:59;;;;;;;4.65;2.10;;;10.20;99.90;;;;;;4392592;32;20081;-65
2021/09/06 00:49:25;;;;;;;3.08;1.90;;;10.30;99.90;;;;;;4392584;32;20525;-64
2021/09/06 00:51:51;;;;;;;3.85;2.00;;;10.30;99.90;;;;;;4378873;32;20161;-65
2021/09/06 00:54:17;;;;;;;4.12;2.45;;;10.40;99.90;;;;;;4377903;32;20093;-65
2021/09/06 00:56:43;;;;;;;4.60;2.50;;;10.50;99.90;;;;;;4391304;32;20546;-65
2021/09/06 00:59:10;;;;;;;3.70;2.25;;;10.50;99.90;;;;;;4396352;32;20080;-65
2021/09/06 01:01:36;;;;;;;4.30;2.60;;;10.50;99.90;;;;;;4383177;32;20108;-66
2021/09/06 01:04:02;;;;;;;4.57;2.75;;;10.50;99.90;;;;;;4378628;32;20154;-65
2021/09/06 01:06:28;;;;;;;3.75;2.20;;;10.50;99.90;;;;;;4365889;32;20153;-65
2021/09/06 01:08:54;;;;;;;5.45;2.40;;;10.40;99.90;;;;;;4378579;32;20104;-66
2021/09/06 01:11:20;;;;;;;8.57;2.95;;;10.40;99.90;;;;;;4378726;32;20512;-66
2021/09/06 01:13:46;;;;;;;4.85;2.60;;;10.40;99.90;;;;;;4391099;32;20085;-65
2021/09/06 01:16:13;;;;;;;5.18;2.40;;;10.50;99.90;;;;;;4391574;32;20074;-66
2021/09/06 01:18:39;;;;;;;4.70;2.60;;;10.50;99.90;;;;;;4392518;32;20081;-64
2021/09/06 01:21:05;;;;;;;4.53;2.30;;;10.50;99.90;;;;;;4378066;32;20610;-66
2021/09/06 01:23:31;;;;;;;4.07;2.30;;;10.50;99.90;;;;;;4378037;32;20054;-65
2021/09/06 01:25:57;;;;;;;4.18;2.45;;;10.50;99.90;;;;;;4390769;32;20517;-65
2021/09/06 01:28:23;;;;;;;5.78;2.20;;;10.50;99.90;;;;;;4391406;32;20093;-65
2021/09/06 01:30:49;;;;;;;6.00;2.95;;;10.40;99.90;;;;;;4365809;32;20082;-65
2021/09/06 01:33:15;;;;;;;3.53;1.85;;;10.30;99.90;;;;;;4392015;32;20092;-65
2021/09/06 01:35:42;;;;;;;3.47;2.08;;;10.30;99.90;;;;;;4392297;32;20077;-65
2021/09/06 01:38:08;;;;;;;3.65;2.15;;;10.30;99.90;;;;;;4377883;32;20173;-65
2021/09/06 01:40:34;;;;;;;4.00;2.50;;;10.20;99.90;;;;;;4390454;32;20464;-65
2021/09/06 01:43:00;;;;;;;3.85;2.25;;;10.20;99.90;;;;;;4377932;32;20085;-64
2021/09/06 01:45:26;;;;;;;3.67;2.00;;;10.30;99.90;;;;;;4378042;32;20154;-65
2021/09/06 01:47:53;;;;;;;4.75;2.40;;;10.20;99.90;;;;;;4392336;32;20077;-65
2021/09/06 01:50:19;;;;;;;2.97;2.05;;;10.20;99.90;;;;;;4391099;32;20169;-65
2021/09/06 01:52:45;;;;;;;2.58;1.85;;;10.30;99.90;;;;;;4391377;32;20447;-66
2021/09/06 01:55:11;;;;;;;3.83;2.08;;;10.30;99.90;;;;;;4391896;32;20593;-66
2021/09/06 01:57:37;;;;;;;2.72;1.83;;;10.20;99.90;;;;;;4390253;32;20074;-65
2021/09/06 02:00:05;;;;;;;4.28;2.10;;;10.20;99.90;;;;;;4390297;32;20071;-64
2021/09/06 02:02:31;;;;;;;4.32;2.10;;;10.10;99.90;;;;;;4391639;32;20245;-65
2021/09/06 02:04:57;;;;;;;2.78;1.85;;;10.10;99.90;;;;;;4365077;32;20158;-65
2021/09/06 02:07:23;;;;;;;2.85;2.08;;;10.20;99.90;;;;;;4378058;32;20160;-65
2021/09/06 02:09:49;;;;;;;2.78;2.00;;;10.20;99.90;;;;;;4377860;32;20082;-65
2021/09/06 02:12:15;;;;;;;2.95;1.95;;;10.10;99.90;;;;;;4390354;32;20077;-65
2021/09/06 02:14:41;;;;;;;4.05;2.10;;;10.00;99.90;;;;;;4377588;32;20082;-65
2021/09/06 02:17:08;;;;;;;3.12;2.10;;;10.00;99.90;;;;;;4392559;32;20472;-65
2021/09/06 02:19:34;;;;;;;3.08;2.00;;;10.10;99.90;;;;;;4390182;32;20508;-65
2021/09/06 02:22:00;;;;;;;3.72;2.05;;;10.20;99.90;;;;;;4391457;32;20077;-65
2021/09/06 02:24:26;;;;;;;4.07;2.37;;;10.20;99.90;;;;;;4389797;32;20469;-65
2021/09/06 02:26:53;;;;;;;4.03;2.10;;;10.30;99.90;;;;;;4390469;32;20468;-65
2021/09/06 02:29:19;;;;;;;3.08;1.90;;;10.30;99.90;;;;;;4378570;32;20132;-65
2021/09/06 02:31:45;;;;;;;2.87;1.73;;;10.30;99.90;;;;;;4391468;32;20080;-65
2021/09/06 02:34:11;;;;;;;4.12;2.00;;;10.30;99.90;;;;;;4389960;32;20062;-65
2021/09/06 02:36:37;;;;;;;2.75;1.85;;;10.30;99.90;;;;;;4390042;32;20081;-65
2021/09/06 02:39:04;;;;;;;3.58;1.60;;;10.30;99.90;;;;;;4390135;32;20518;-65
2021/09/06 02:41:30;;;;;;;3.55;1.85;;;10.40;99.90;;;;;;4378163;32;20086;-65
2021/09/06 02:43:56;;;;;;;3.62;2.20;;;10.40;99.90;;;;;;4377836;32;20077;-66
2021/09/06 02:46:23;;;;;;;3.42;2.05;;;10.40;99.90;;;;;;4379468;32;20074;-66
2021/09/06 02:48:49;;;;;;;3.12;2.10;;;10.40;99.90;;;;;;4389664;32;20177;-64
2021/09/06 02:51:15;;;;;;;3.92;2.15;;;10.40;99.90;;;;;;4377238;32;20085;-65
2021/09/06 02:53:41;;;;;;;3.90;2.22;;;10.50;99.90;;;;;;4377476;32;20512;-65
2021/09/06 02:56:07;;;;;;;4.57;2.60;;;10.50;99.90;;;;;;4389818;32;20089;-65
2021/09/06 02:58:33;;;;;;;3.37;2.50;;;10.60;99.90;;;;;;4391208;32;20074;-65
2021/09/06 03:00:59;;;;;;;5.82;2.20;;;10.60;99.90;;;;;;4390004;32;20108;-65
2021/09/06 03:03:25;;;;;;;6.55;2.45;;;10.70;99.90;;;;;;4390401;32;20077;-65
2021/09/06 03:05:52;;;;;;;4.47;2.60;;;10.80;99.90;;;;;;4378240;32;20066;-65
2021/09/06 03:08:18;;;;;;;5.07;2.67;;;10.90;99.90;;;;;;4390827;32;20420;-64
2021/09/06 03:10:44;;;;;;;4.30;2.70;;;10.80;99.90;;;;;;4390042;32;20054;-64
2021/09/06 03:13:10;;;;;;;4.45;2.60;;;10.80;99.90;;;;;;4389566;32;20232;-65
2021/09/06 03:15:36;;;;;;;2.87;2.15;;;10.80;99.90;;;;;;4389861;32;20086;-65
2021/09/06 03:18:02;;;;;;;5.57;2.60;;;10.80;99.90;;;;;;4391483;32;20082;-66
2021/09/06 03:20:29;;;;;;;3.78;2.22;;;10.70;99.90;;;;;;4392611;32;20082;-65
2021/09/06 03:22:55;;;;;;;3.70;2.40;;;10.90;99.90;;;;;;4380030;32;20084;-65
2021/09/06 03:25:21;;;;;;;3.85;2.37;;;11.00;99.90;;;;;;4380078;32;20073;-65
2021/09/06 03:27:47;;;;;;;3.97;2.60;;;10.90;99.90;;;;;;4380552;32;20073;-65
2021/09/06 03:30:14;;;;;;;5.68;3.22;;;10.80;99.90;;;;;;4380421;32;20108;-66
2021/09/06 03:32:40;;;;;;;6.22;3.10;;;10.80;99.90;;;;;;4389886;32;20145;-70
2021/09/06 03:35:08;;;;;;;8.73;3.37;;;10.70;99.90;;;;;;4374197;32;20066;-65
2021/09/06 03:37:34;;;;;;;6.07;2.90;;;10.70;99.90;;;;;;4408056;32;20018;-65
2021/09/06 03:40:00;;;;;;;7.03;3.95;;;10.90;99.90;;;;;;4407351;32;20073;-64
2021/09/06 03:42:27;;;;;;;7.40;3.28;;;10.80;99.90;;;;;;4405474;32;20070;-65
2021/09/06 03:44:53;;;;;;;7.40;3.90;;;10.80;99.90;;;;;;4365341;32;20141;-65
2021/09/06 03:47:20;;;;;;;10.25;3.87;;;10.90;99.90;;;;;;4396458;32;20085;-66
2021/09/06 03:49:59;;;;;;;7.32;3.37;;;10.90;99.90;;;;;;4398468;32;20077;-65
2021/09/06 03:52:26;;;;;;;8.88;4.20;;;10.90;99.90;;;;;;4396324;32;20165;-65
2021/09/06 03:54:52;;;;;;;9.07;4.05;;;10.80;99.90;;;;;;4381483;32;20085;-65
2021/09/06 03:57:18;;;;;;;9.15;3.58;;;10.70;99.90;;;;;;4395342;32;20171;-65
2021/09/06 03:59:44;;;;;;;7.20;3.65;;;10.70;99.90;;;;;;4367026;32;20088;-64
2021/09/06 04:02:10;;;;;;;7.20;3.30;;;10.70;99.90;;;;;;4367900;32;20090;-65
2021/09/06 04:04:36;;;;;;;8.13;4.78;;;10.70;99.90;;;;;;4391970;32;20101;-65
2021/09/06 04:07:03;;;;;;;5.12;2.95;;;10.70;99.90;;;;;;4379612;32;20074;-65
2021/09/06 04:09:29;;;;;;;4.97;3.10;;;10.80;99.90;;;;;;4379307;32;20548;-64
2021/09/06 04:11:56;;;;;;;5.37;3.58;;;10.90;99.90;;;;;;4391771;32;20063;-65
2021/09/06 04:14:24;;;;;;;5.10;3.10;;;10.90;99.90;;;;;;4379157;32;20090;-64
2021/09/06 04:16:50;;;;;;;4.53;2.62;;;10.90;99.90;;;;;;4379685;32;20089;-65
2021/09/06 04:19:16;;;;;;;3.92;2.50;;;11.10;99.90;;;;;;4379734;32;20097;-64
2021/09/06 04:21:42;;;;;;;6.78;2.70;;;11.00;99.90;;;;;;4393519;32;20152;-65
2021/09/06 04:24:08;;;;;;;3.65;2.00;;;11.10;99.90;;;;;;4393789;32;20081;-65
2021/09/06 04:26:34;;;;;;;3.75;2.37;;;11.10;99.90;;;;;;4392196;32;20488;-65
2021/09/06 04:29:00;;;;;;;3.45;2.00;;;11.00;99.90;;;;;;4392659;32;20072;-65
2021/09/06 04:31:27;;;;;;;4.85;2.30;;;11.10;99.90;;;;;;4393111;32;20105;-65
2021/09/06 04:33:53;;;;;;;5.43;1.95;;;11.00;99.90;;;;;;4392094;32;20085;-65
2021/09/06 04:36:19;;;;;;;4.32;2.33;;;11.10;99.90;;;;;;4379195;32;20066;-65
2021/09/06 04:38:45;;;;;;;4.22;2.10;;;11.00;99.90;;;;;;4391776;32;20081;-65
2021/09/06 04:41:11;;;;;;;2.65;1.67;;;11.30;99.90;;;;;;4378620;32;20538;-65
2021/09/06 04:43:38;;;;;;;5.15;1.95;;;11.40;99.90;;;;;;4393478;32;20093;-66
2021/09/06 04:46:04;;;;;;;4.32;2.20;;;11.20;99.90;;;;;;4382707;32;20077;-65
2021/09/06 04:48:30;;;;;;;2.47;1.92;;;11.30;99.90;;;;;;4391285;32;20077;-65
2021/09/06 04:50:56;;;;;;;2.62;1.75;;;11.50;99.90;;;;;;4391384;32;20081;-65
2021/09/06 04:53:22;;;;;;;2.50;1.67;;;11.40;99.90;;;;;;4391284;32;20187;-65
2021/09/06 04:55:48;;;;;;;4.85;1.67;;;13.00;99.90;;;;;;4379414;32;20152;-65
2021/09/06 04:58:14;;;;;;;3.30;1.70;;;14.60;99.90;;;;;;4379200;32;20455;-64
2021/09/06 05:00:41;;;;;;;2.25;1.50;;;14.30;99.90;;;;;;4394784;32;20086;-64
2021/09/06 05:03:07;;;;;;;2.95;2.05;;;14.50;99.90;;;;;;4379158;32;20066;-65
2021/09/06 05:05:33;;;;;;;2.62;2.00;;;14.60;99.90;;;;;;4392656;32;20087;-65
2021/09/06 05:07:59;;;;;;;3.70;1.92;;;14.00;99.90;;;;;;4379402;32;20466;-66
2021/09/06 05:10:25;;;;;;;3.17;2.10;;;14.30;99.90;;;;;;4390816;32;20505;-66
2021/09/06 05:12:51;;;;;;;4.35;2.20;;;14.60;99.90;;;;;;4365576;32;20085;-65
2021/09/06 05:15:17;;;;;;;6.05;2.35;;;14.40;99.90;;;;;;4365643;32;20158;-65
2021/09/06 05:17:44;;;;;;;2.37;1.75;;;14.10;99.90;;;;;;4390796;32;20078;-65
2021/09/06 05:20:11;;;;;;;3.50;2.25;;;14.70;99.90;;;;;;4392062;32;20571;-66
2021/09/06 05:22:37;;;;;;;3.75;2.20;;;14.60;99.90;;;;;;4390949;32;20100;-65
2021/09/06 05:25:03;;;;;;;3.00;1.98;;;14.70;99.90;;;;;;4378244;32;20511;-65
2021/09/06 05:27:29;;;;;;;2.40;1.65;;;15.60;99.90;;;;;;4390337;32;20073;-65
2021/09/06 05:29:55;;;;;;;3.55;1.98;;;16.20;99.10;;;;;;4390399;32;20528;-65
2021/09/06 05:32:22;;;;;;;2.30;1.73;;;15.90;96.90;;;;;;4391312;32;20089;-65
2021/09/06 05:34:48;;;;;;;3.62;2.03;;;15.70;94.80;;;;;;4391175;32;20073;-66
2021/09/06 05:37:14;;;;;;;3.15;1.85;;;16.50;91.20;;;;;;4391295;32;20077;-66
2021/09/06 05:39:40;;;;;;;3.70;2.40;;;16.80;85.20;;;;;;4391022;32;20080;-66
2021/09/06 05:42:06;;;;;;;2.17;1.67;;;16.40;89.60;;;;;;4390391;32;20090;-65
2021/09/06 05:44:33;;;;;;;2.80;1.85;;;17.20;85.90;;;;;;4365855;32;20079;-67
2021/09/06 05:48:35;;;;;;;1.80;1.45;;;17.60;76.60;;;;;;3857398;37;20070;-65
2021/09/06 05:51:01;;;;;;;3.53;2.05;;;16.90;77.50;;;;;;4406291;32;20491;-66
2021/09/06 05:53:27;;;;;;;3.42;2.00;;;16.40;82.30;;;;;;4406483;32;20150;-66
2021/09/06 05:55:54;;;;;;;3.78;2.12;;;17.00;79.90;;;;;;4404066;32;20077;-66
2021/09/06 05:58:20;;;;;;;3.92;2.12;;;16.40;79.50;;;;;;4366132;32;20082;-65
2021/09/06 06:00:46;;;;;;;3.92;2.20;;;16.50;78.10;;;;;;4405527;32;20131;-65
2021/09/06 06:03:12;;;;;;;5.47;2.60;;;16.10;80.70;;;;;;4391362;32;20081;-65
2021/09/06 06:05:38;;;;;;;3.37;2.15;;;15.40;86.00;;;;;;4410393;32;20085;-66
2021/09/06 06:08:05;;;;;;;4.35;2.12;;;14.40;89.80;;;;;;4403926;32;20085;-65
2021/09/06 06:10:31;;;;;;;4.90;2.25;;;14.40;90.00;;;;;;4391600;32;20166;-65
2021/09/06 06:12:57;;;;;;;4.10;2.40;;;15.30;87.00;;;;;;4378533;32;20093;-65
2021/09/06 06:15:23;;;;;;;4.00;2.25;;;15.70;77.20;;;;;;4390721;32;20101;-66
2021/09/06 06:17:49;;;;;;;3.03;1.90;;;15.20;82.90;;;;;;4403150;32;20175;-65
2021/09/06 06:20:18;;;;;;;3.10;1.73;;;14.70;85.20;;;;;;4365346;32;20097;-65
2021/09/06 06:22:45;;;;;;;2.90;1.80;;;15.40;83.30;;;;;;4378311;32;20104;-65
2021/09/06 06:25:12;;;;;;;1.92;1.58;;;15.60;79.10;;;;;;4390519;32;20158;-65
2021/09/06 06:27:38;;;;;;;2.22;1.55;;;15.20;82.40;;;;;;4377991;32;20077;-65
2021/09/06 06:30:05;;;;;;;3.37;2.10;;;14.50;95.90;;;;;;4378354;32;20086;-65
2021/09/06 06:32:31;;;;;;;4.18;2.33;;;14.40;99.90;;;;;;4390411;32;20180;-65
2021/09/06 06:34:57;;;;;;;4.70;2.25;;;14.20;96.40;;;;;;4390648;32;20557;-65
2021/09/06 06:37:23;;;;;;;5.15;2.03;;;13.30;97.80;;;;;;4402873;32;20067;-65
2021/09/06 06:39:49;;;;;;;5.18;2.17;;;12.90;99.90;;;;;;4365411;32;20540;-65
2021/09/06 06:42:16;;;;;;;6.37;2.85;;;13.10;99.90;;;;;;4390093;32;20510;-65
2021/09/06 06:44:42;;;;;;;3.90;1.90;;;13.00;99.90;;;;;;4403740;32;20162;-65
2021/09/06 06:47:09;;;;;;;3.85;2.20;;;12.90;99.90;;;;;;4404680;32;20203;-66
2021/09/06 06:49:35;;;;;;;6.03;2.17;;;12.90;99.90;;;;;;4366325;32;20504;-65
2021/09/06 06:52:01;;;;;;;3.25;1.90;;;12.80;99.90;;;;;;4391174;32;20140;-66
2021/09/06 06:54:27;;;;;;;4.82;2.33;;;12.80;99.90;;;;;;4390338;32;20520;-65
2021/09/06 06:56:54;;;;;;;5.57;2.87;;;13.00;99.90;;;;;;4390847;32;20532;-66
2021/09/06 06:59:20;;;;;;;4.22;2.35;;;12.90;99.90;;;;;;4370678;32;20092;-65
2021/09/06 07:01:46;;;;;;;3.37;2.05;;;12.90;99.90;;;;;;4392193;32;20081;-64
2021/09/06 07:04:13;;;;;;;4.22;2.28;;;13.10;99.90;;;;;;4379548;32;20070;-65
2021/09/06 07:06:39;;;;;;;3.08;1.98;;;13.30;99.90;;;;;;4379840;32;20074;-65
2021/09/06 07:09:05;;;;;;;3.40;2.03;;;13.70;99.90;;;;;;4379316;32;20524;-65
2021/09/06 07:11:31;;;;;;;3.50;1.95;;;14.30;99.90;;;;;;4367133;32;20540;-65
2021/09/06 07:13:57;;;;;;;3.78;2.22;;;14.10;99.90;;;;;;4379593;32;20100;-66
2021/09/06 07:16:24;;;;;;;3.12;2.03;;;13.60;99.90;;;;;;4379564;32;20089;-65
2021/09/06 07:18:50;;;;;;;4.03;1.67;;;13.50;99.90;;;;;;4404871;32;20154;-65
2021/09/06 07:21:17;;;;;;;3.25;1.92;;;13.00;99.90;;;;;;4380842;32;20086;-65
2021/09/06 07:23:43;;;;;;;3.30;2.00;;;12.90;99.90;;;;;;4392490;32;20504;-65
2021/09/06 07:26:09;;;;;;;2.37;1.80;;;12.50;99.90;;;;;;4392368;32;20500;-66
2021/09/06 07:28:35;;;;;;;4.47;2.33;;;12.60;99.90;;;;;;4392782;32;20157;-65
2021/09/06 07:31:02;;;;;;;4.25;2.42;;;12.70;99.90;;;;;;4391976;32;20062;-65
2021/09/06 07:33:28;;;;;;;5.03;2.78;;;12.70;99.90;;;;;;4379118;32;20077;-65
2021/09/06 07:35:54;;;;;;;7.22;2.90;;;12.80;99.90;;;;;;4379248;32;20066;-65
2021/09/06 07:38:20;;;;;;;4.85;1.75;;;12.70;99.90;;;;;;4391692;32;20081;-65
2021/09/06 07:40:46;;;;;;;3.37;1.98;;;12.60;99.90;;;;;;4371116;32;20120;-63
2021/09/06 07:43:12;;;;;;;3.22;1.75;;;12.60;99.90;;;;;;4379821;32;20084;-72
2021/09/06 07:45:39;;;;;;;4.18;1.98;;;12.90;99.90;;;;;;4376654;32;20101;-71
2021/09/06 07:48:05;;;;;;;3.20;1.73;;;12.90;99.90;;;;;;4362390;32;20070;-74
2021/09/06 07:50:31;;;;;;;2.85;1.90;;;12.80;99.90;;;;;;4372421;32;20508;-71
2021/09/06 07:52:58;;;;;;;5.57;1.98;;;12.90;99.90;;;;;;4375805;32;21016;-72
2021/09/06 07:55:24;;;;;;;4.07;1.98;;;13.70;99.90;;;;;;4385289;32;20145;-72
2021/09/06 07:57:51;;;;;;;2.40;1.40;;;13.50;99.90;;;;;;4383374;32;20070;-71
2021/09/06 08:00:17;;;;;;;3.80;2.00;;;13.30;99.90;;;;;;4377107;32;20080;-73
2021/09/06 08:02:49;;;;;;;4.05;1.90;;;12.90;99.90;;;;;;4358916;32;20082;-72
2021/09/06 08:05:23;;;;;;;3.62;2.30;;;12.90;99.90;;;;;;4373980;32;20105;-65
2021/09/06 08:07:49;;;;;;;2.58;1.62;;;13.00;99.90;;;;;;4374459;32;20089;-66
2021/09/06 08:10:15;;;;;;;2.60;1.55;;;13.60;99.90;;;;;;4375206;32;20135;-66
2021/09/06 08:12:42;;;;;;;3.42;1.67;;;13.90;99.90;;;;;;4386024;32;20095;-67
2021/09/06 08:15:09;;;;;;;2.25;1.42;;;13.90;99.90;;;;;;4371450;32;20075;-71
2021/09/06 08:17:36;;;;;;;3.33;1.77;;;14.10;99.90;;;;;;4377675;32;20090;-70
2021/09/06 08:20:04;;;;;;;1.95;1.50;;;13.80;93.40;;;;;;4375611;32;20109;-69
2021/09/06 08:22:32;;;;;;;2.50;1.48;;;14.10;90.30;;;;;;4364232;32;20090;-66
2021/09/06 08:25:03;;;;;;;2.90;1.58;;;14.20;92.90;;;;;;4374973;32;20082;-68
2021/09/06 08:27:30;;;;;;;1.48;1.25;;;14.60;93.20;;;;;;4362938;32;20190;-65
2021/09/06 08:29:56;;;;;;;1.37;1.20;;;14.30;92.10;;;;;;4378620;32;20070;-69
2021/09/06 08:32:22;;;;;;;2.37;1.30;;;14.10;87.20;;;;;;4360176;32;20081;-69
2021/09/06 08:34:49;;;;;;;1.83;1.42;;;14.20;90.00;;;;;;4378475;32;20155;-68
2021/09/06 08:37:22;;;;;;;2.00;1.37;;;14.40;86.20;;;;;;4366665;32;20097;-69
2021/09/06 08:39:48;;;;;;;1.25;1.08;;;14.50;89.40;;;;;;4378438;32;20065;-68
2021/09/06 08:42:15;;;;;;;1.83;1.17;;;14.40;78.60;;;;;;4361565;32;20134;-66
2021/09/06 08:44:42;;;;;;;1.30;1.20;;;14.10;84.20;;;;;;4362864;32;20076;-71
2021/09/06 08:47:08;;;;;;;3.10;1.40;;;14.20;75.60;;;;;;4349318;32;20086;-66
2021/09/06 08:49:34;;;;;;;1.55;1.30;;;14.40;78.30;;;;;;4363753;32;20177;-74
2021/09/06 08:52:01;;;;;;;2.17;1.10;;;14.30;78.60;;;;;;4375174;32;20088;-73
2021/09/06 08:54:27;;;;;;;2.35;1.27;;;14.30;80.10;;;;;;4345278;32;20073;-70
2021/09/06 08:56:53;;;;;;;1.42;1.20;;;14.70;70.90;;;;;;4387489;32;20488;-67
2021/09/06 08:59:20;;;;;;;2.17;1.33;;;15.20;67.00;;;;;;4384379;32;20511;-66
2021/09/06 09:01:56;;;;;;;2.50;1.45;;;15.30;66.80;;;;;;4370659;32;20076;-67
2021/09/06 09:04:26;;;;;;;1.20;1.10;;;14.80;68.90;;;;;;4375934;32;20190;-67
2021/09/06 09:06:58;;;;;;;1.40;1.05;;;14.60;75.30;;;;;;4364682;32;20185;-65
2021/09/06 09:09:35;;;;;;;1.75;1.10;;;14.20;77.10;;;;;;4378287;32;20069;-65
2021/09/06 09:12:20;;;;;;;1.48;1.23;;;14.10;77.30;;;;;;4361165;32;20066;-64
2021/09/06 09:14:50;;;;;;;1.10;0.93;;;14.40;74.00;;;;;;4355414;32;20085;-64
2021/09/06 09:17:16;;;;;;;1.30;0.88;;;14.40;69.10;;;;;;4359115;32;20068;-66
2021/09/06 09:19:43;;;;;;;1.10;0.90;;;14.40;66.60;;;;;;4380544;32;20093;-64
2021/09/06 09:22:15;;;;;;;2.00;1.35;;;14.50;67.90;;;;;;4351863;32;20148;-66
2021/09/06 09:24:41;;;;;;;1.80;1.40;;;15.00;69.50;;;;;;4376225;32;20448;-65
2021/09/06 09:27:13;;;;;;;1.10;0.98;;;15.40;65.30;;;;;;4380159;32;20078;-63
2021/09/06 09:29:41;;;;;;;4.00;2.72;;;14.90;59.80;;;;;;4370023;32;20170;-64
2021/09/06 09:32:12;;;;;;;2.92;1.73;;;14.70;64.30;;;;;;4363815;32;20062;-63
2021/09/06 09:34:42;;;;;;;1.60;1.20;;;14.90;60.10;;;;;;4366727;32;20105;-67
2021/09/06 09:37:09;;;;;;;2.92;1.45;;;14.90;59.00;;;;;;4373463;32;20078;-65
2021/09/06 09:39:37;;;;;;;1.25;0.80;;;14.50;55.70;;;;;;4359402;32;20190;-65
2021/09/06 09:42:09;;;;;;;1.08;0.98;;;14.50;55.70;;;;;;4361304;32;20116;-66
2021/09/06 09:44:48;;;;;;;1.85;1.02;;;14.50;57.00;;;;;;4335953;32;20571;-71
2021/09/06 09:47:17;;;;;;;1.80;1.40;;;14.70;57.00;;;;;;4350192;32;20085;-63
2021/09/06 09:49:43;;;;;;;1.27;1.08;;;14.50;55.30;;;;;;4360574;32;20151;-70
2021/09/06 09:52:10;;;;;;;1.20;0.95;;;14.40;57.50;;;;;;4383815;32;20078;-66
2021/09/06 09:54:36;;;;;;;2.17;1.27;;;14.40;56.50;;;;;;4385679;32;20066;-65
2021/09/06 09:57:03;;;;;;;1.62;0.90;;;14.60;58.70;;;;;;4381831;32;20077;-65
2021/09/06 09:59:29;;;;;;;1.45;1.17;;;14.50;58.40;;;;;;4371762;32;20070;-70
2021/09/06 10:02:21;;;;;;;1.23;1.10;;;14.60;59.00;;;;;;4360724;32;20171;-64
2021/09/06 10:04:54;;;;;;;1.17;1.00;;;15.00;56.40;;;;;;4371377;32;20065;-62
2021/09/06 10:07:23;;;;;;;2.00;1.15;;;15.30;57.90;;;;;;4372951;32;20080;-63
2021/09/06 10:09:49;;;;;;;1.58;1.02;;;15.10;58.30;;;;;;4380162;32;20561;-63
2021/09/06 10:12:28;;;;;;;2.47;1.70;;;14.40;61.50;;;;;;4374748;32;20158;-63
2021/09/06 10:15:05;;;;;;;2.12;1.45;;;14.50;62.40;;;;;;4377807;32;20085;-64
2021/09/06 10:17:35;;;;;;;4.25;2.28;;;15.50;58.40;;;;;;4349818;32;20078;-64
2021/09/06 10:20:10;;;;;;;4.40;1.98;;;15.80;59.30;;;;;;4362614;32;20173;-64
2021/09/06 10:22:36;;;;;;;2.83;1.75;;;15.90;58.10;;;;;;4378318;32;20061;-63
2021/09/06 10:25:06;;;;;;;4.30;1.73;;;15.30;58.10;;;;;;4379523;32;20149;-65
2021/09/06 10:27:36;;;;;;;3.92;1.80;;;15.40;61.80;;;;;;4353226;32;20077;-63
2021/09/06 10:30:08;;;;;;;2.45;1.55;;;15.00;60.60;;;;;;4378348;32;20559;-63
2021/09/06 10:32:36;;;;;;;4.00;2.00;;;15.00;57.50;;;;;;4392523;32;20066;-63
2021/09/06 10:35:23;;;;;;;2.22;1.50;;;14.80;58.30;;;;;;4373647;32;20451;-63
2021/09/06 10:38:19;;;;;;;1.20;1.10;;;14.70;57.30;;;;;;4373857;32;20059;-64
2021/09/06 10:40:45;;;;;;;1.45;1.30;;;14.70;57.30;;;;;;4378611;32;20105;-63
2021/09/06 10:43:17;;;;;;;1.58;1.20;;;14.70;59.30;;;;;;4378806;32;20149;-60
2021/09/06 10:45:46;;;;;;;1.37;1.27;;;15.30;64.40;;;;;;4364747;32;20145;-61
2021/09/06 10:48:24;;;;;;;1.65;1.27;;;15.00;62.30;;;;;;4361057;32;20070;-61
2021/09/06 10:50:53;;;;;;;2.80;1.40;;;14.90;64.00;;;;;;4372307;32;20077;-60
2021/09/06 10:53:22;;;;;;;1.17;1.00;;;15.20;66.10;;;;;;4359165;32;20073;-62
2021/09/06 10:55:53;;;;;;;1.05;0.95;;;14.30;59.00;;;;;;4369710;32;20070;-62
2021/09/06 10:58:25;;;;;;;1.23;1.10;;;14.40;60.70;;;;;;4376471;32;20089;-63
2021/09/06 11:01:04;;;;;;;5.22;2.53;;;14.40;63.30;;;;;;4366396;32;20093;-62
2021/09/06 11:03:38;;;;;;;1.92;1.20;;;14.80;64.50;;;;;;4380631;32;20077;-62
2021/09/06 11:06:05;;;;;;;2.50;1.40;;;14.40;64.50;;;;;;4353239;32;20089;-62
2021/09/06 11:08:36;;;;;;;2.25;1.67;;;14.30;62.80;;;;;;4366093;32;20166;-61
2021/09/06 11:11:04;;;;;;;2.42;1.70;;;14.80;57.80;;;;;;4376012;32;20073;-61
2021/09/06 11:13:40;;;;;;;3.00;1.00;;;15.80;55.10;;;;;;4368741;32;20066;-64
2021/09/06 11:16:10;;;;;;;1.92;1.17;;;16.00;55.40;;;;;;4365288;32;20074;-65
2021/09/06 11:18:38;;;;;;;1.60;1.37;;;16.00;53.20;;;;;;4382196;32;20100;-64
2021/09/06 11:21:05;;;;;;;2.78;1.62;;;15.60;52.90;;;;;;4355114;32;20067;-64
2021/09/06 11:23:51;;;;;;;3.20;1.77;;;15.70;54.40;;;;;;4371139;32;20081;-64
2021/09/06 11:26:37;;;;;;;2.95;1.40;;;15.80;54.40;;;;;;4371101;32;20559;-64
2021/09/06 11:29:03;;;;;;;2.78;1.55;;;16.20;56.80;;;;;;4367467;32;20077;-62
2021/09/06 11:31:30;;;;;;;2.70;1.40;;;15.80;56.60;;;;;;4367564;32;20162;-64
2021/09/06 11:34:04;;;;;;;2.35;1.77;;;16.00;53.60;;;;;;4377400;32;20069;-66
2021/09/06 11:36:31;;;;;;;1.55;1.10;;;16.50;55.40;;;;;;4376841;32;20090;-68
2021/09/06 11:38:58;;;;;;;1.17;1.10;;;16.20;51.30;;;;;;4377184;32;20583;-65
2021/09/06 11:41:24;;;;;;;1.73;1.27;;;15.90;50.90;;;;;;4362315;32;20066;-66
2021/09/06 11:43:51;;;;;;;3.20;1.30;;;16.40;49.70;;;;;;4366064;32;20604;-69
2021/09/06 11:46:17;;;;;;;1.65;1.30;;;16.70;50.00;;;;;;4378457;32;20150;-65
2021/09/06 11:48:48;;;;;;;1.73;1.35;;;16.60;50.00;;;;;;4352152;32;20072;-65
2021/09/06 11:51:15;;;;;;;1.30;1.17;;;15.70;51.60;;;;;;4376070;32;20194;-67
2021/09/06 11:53:52;;;;;;;4.30;2.03;;;16.10;49.70;;;;;;4369891;32;20155;-63
2021/09/06 11:56:18;;;;;;;5.10;1.50;;;15.80;54.10;;;;;;4366582;32;20113;-64
2021/09/06 11:58:46;;;;;;;3.87;1.73;;;15.50;64.40;;;;;;4389589;32;20110;-64
2021/09/06 12:01:15;;;;;;;2.70;2.00;;;15.30;63.10;;;;;;4383395;32;20157;-65
2021/09/06 12:03:42;;;;;;;3.33;1.87;;;14.40;70.00;;;;;;4351407;32;20097;-65
2021/09/06 12:06:14;;;;;;;3.92;2.00;;;14.10;73.90;;;;;;4363921;32;20149;-67
2021/09/06 12:08:51;;;;;;;4.05;2.00;;;13.90;76.50;;;;;;4374956;32;20077;-65
2021/09/06 12:11:17;;;;;;;2.65;1.60;;;14.10;76.20;;;;;;4365260;32;20186;-65
2021/09/06 12:13:43;;;;;;;2.90;1.67;;;14.20;76.30;;;;;;4365950;32;20094;-69
2021/09/06 12:16:11;;;;;;;3.22;1.58;;;14.00;76.00;;;;;;4367263;32;20158;-63
2021/09/06 12:18:41;;;;;;;3.00;1.67;;;14.00;75.80;;;;;;4379696;32;20073;-65
2021/09/06 12:21:14;;;;;;;1.77;1.58;;;14.20;73.20;;;;;;4371709;32;20092;-63
2021/09/06 12:23:43;;;;;;;4.50;2.40;;;14.20;72.10;;;;;;4381699;32;20097;-64
2021/09/06 12:26:10;;;;;;;4.10;2.42;;;14.20;78.80;;;;;;4384258;32;20081;-68
2021/09/06 12:29:06;;;;;;;3.72;2.20;;;14.30;88.40;;;;;;4348825;32;20543;-65
2021/09/06 12:31:43;;;;;;;4.50;2.40;;;14.00;84.50;;;;;;4385832;32;20077;-64
2021/09/06 12:34:11;;;;;;;5.03;2.58;;;14.20;84.90;;;;;;4364663;32;20101;-62
2021/09/06 12:36:42;;;;;;;2.15;1.40;;;15.60;84.50;;;;;;4355038;32;20066;-64
2021/09/06 12:39:08;;;;;;;1.92;1.10;;;15.00;81.50;;;;;;4387362;32;20109;-64
2021/09/06 12:41:35;;;;;;;1.62;1.20;;;14.50;88.90;;;;;;4358286;32;20142;-67
2021/09/06 12:44:01;;;;;;;2.15;1.45;;;14.30;90.10;;;;;;4377137;32;20063;-70
2021/09/06 12:46:28;;;;;;;2.10;1.45;;;14.50;92.20;;;;;;4360788;32;20108;-69
2021/09/06 12:48:55;;;;;;;2.25;1.40;;;14.40;91.30;;;;;;4378015;32;20073;-66
2021/09/06 12:51:21;;;;;;;1.73;1.20;;;14.20;85.60;;;;;;4369394;32;20222;-66